This is the latest recevied weather packets stored in our database for station/object W4SMH. If no packets are shown the sender has not sent any weather packets the latest 10 day(s).
| Time | Temp. | Humidity | Pressure | Rain* | Wind** | Luminosity | Snow |
|---|---|---|---|---|---|---|---|
| 1777522087 | 4.44° C | 89% | 1015.1 hPa | 0 mm | - | 0 W/m² | - |
| 1777522053 | 4.44° C | 89% | 1015 hPa | 0 mm | - | 0 W/m² | - |
| 1777521826 | 4.44° C | 89% | 1015 hPa | 0 mm | - | 0 W/m² | - |
| 1777521768 | 4.44° C | 89% | 1015 hPa | 0 mm | - | 0 W/m² | - |
| 1777521608 | 4.44° C | 89% | 1015 hPa | 0 mm | - | 0 W/m² | - |
| 1777520863 | 13.89° C | 82% | 1001.9 hPa | 0 mm | - | 0 W/m² | - |
| 1777520813 | 4.44° C | 89% | 1015.2 hPa | 0 mm | - | 0 W/m² | - |
| 1777520780 | 4.44° C | 89% | 1015.1 hPa | 0 mm | - | 0 W/m² | - |
| 1777520754 | 4.44° C | 89% | 1015.1 hPa | 0 mm | - | 0 W/m² | - |
| 1777520553 | 4.44° C | 89% | 1015.2 hPa | 0 mm | - | 0 W/m² | - |
| 1777520528 | 4.44° C | 89% | 1015.1 hPa | 0 mm | - | 0 W/m² | - |
| 1777519715 | 5° C | 88% | 1015.3 hPa | 0 mm | - | 0 W/m² | - |
| 1777519656 | 5° C | 88% | 1015.3 hPa | 0 mm | - | 0 W/m² | - |
| 1777519252 | 5° C | 88% | 1015.3 hPa | 0 mm | - | 0 W/m² | - |
| 1777519193 | 5° C | 88% | 1015.4 hPa | 0 mm | - | 0 W/m² | - |
| 1777518761 | 5° C | 88% | 1015.4 hPa | 0 mm | - | 0 W/m² | - |
| 1777518736 | 5° C | 88% | 1015.3 hPa | 0 mm | - | 0 W/m² | - |
| 1777517897 | 5.56° C | 88% | 1015.5 hPa | 0 mm | - | 0 W/m² | - |
| 1777517841 | 5.56° C | 88% | 1015.5 hPa | 0 mm | - | 0 W/m² | - |
| 1777517811 | 5.56° C | 88% | 1015.4 hPa | 0 mm | - | 0 W/m² | - |
| 1777517666 | 5.56° C | 88% | 1015.4 hPa | 0 mm | - | 0 W/m² | - |
| 1777517471 | 5.56° C | 88% | 1015.4 hPa | 0 mm | - | 0 W/m² | - |
| 1777516778 | 14.44° C | 83% | 1001.8 hPa | 0 mm | - | 0 W/m² | - |
| 1777516691 | 5.56° C | 88% | 1015.5 hPa | 0 mm | - | 0 W/m² | - |
| 1777516613 | 5.56° C | 88% | 1015.4 hPa | 0 mm | - | 0 W/m² | - |
* Rain latest hour (hover to see other rain measurements)
** Current wind speed in m/s (hover to see current wind gust speed)